createdAt,value
2018-11-05T00:01:15.785Z,87.84
2018-11-05T00:03:45.630Z,87.72
2018-11-05T00:06:15.572Z,87.41
2018-11-05T00:08:45.780Z,86.91
2018-11-05T00:11:15.818Z,87.35
2018-11-05T00:13:45.817Z,87.89
2018-11-05T00:16:15.744Z,87.02
2018-11-05T00:18:45.613Z,87.17
2018-11-05T00:21:15.746Z,86.64
2018-11-05T00:23:45.505Z,87.76
2018-11-05T00:26:15.252Z,87.17
2018-11-05T00:28:45.157Z,86.94
2018-11-05T00:31:14.990Z,87.47
2018-11-05T00:33:45.054Z,87.79
2018-11-05T00:36:15.570Z,88.46
2018-11-05T00:38:45.485Z,88.57
2018-11-05T00:41:15.283Z,88.62
2018-11-05T00:43:45.320Z,88.06
2018-11-05T00:46:15.200Z,87.22
2018-11-05T00:48:44.996Z,87.97
2018-11-05T00:51:15.155Z,88.39
2018-11-05T00:53:45.091Z,88.30
2018-11-05T00:56:15.008Z,88.03
2018-11-05T00:58:44.917Z,87.95
2018-11-05T01:01:14.803Z,87.75
2018-11-05T01:03:44.916Z,87.58
2018-11-05T01:06:14.748Z,87.60
2018-11-05T01:08:45.072Z,87.95
2018-11-05T01:11:14.972Z,86.76
2018-11-05T01:13:44.990Z,86.37
2018-11-05T01:16:14.815Z,87.30
2018-11-05T01:18:45.007Z,87.27
2018-11-05T01:21:14.884Z,87.52
2018-11-05T01:23:44.804Z,87.77
2018-11-05T01:26:14.766Z,88.22
2018-11-05T01:28:44.556Z,88.67
2018-11-05T01:31:14.668Z,88.00
2018-11-05T01:33:44.489Z,86.87
2018-11-05T01:36:14.471Z,87.75
2018-11-05T01:38:44.236Z,87.76
2018-11-05T01:41:14.446Z,87.89
2018-11-05T01:43:44.402Z,87.81
2018-11-05T01:46:14.222Z,87.83
2018-11-05T01:48:44.118Z,87.79
2018-11-05T01:51:14.312Z,87.99
2018-11-05T01:53:44.119Z,88.04
2018-11-05T01:56:14.144Z,88.08
2018-11-05T01:58:44.035Z,88.72
2018-11-05T02:01:13.936Z,88.53
2018-11-05T02:03:43.832Z,88.43
2018-11-05T02:06:13.724Z,88.74
2018-11-05T02:08:43.781Z,87.91
2018-11-05T02:11:13.780Z,87.57
2018-11-05T02:13:43.952Z,87.57
2018-11-05T02:16:14.021Z,87.01
2018-11-05T02:18:44.045Z,87.53
2018-11-05T02:21:14.111Z,87.53
2018-11-05T02:23:44.021Z,86.97
2018-11-05T02:26:14.093Z,86.66
2018-11-05T02:28:44.000Z,86.90
2018-11-05T02:31:13.791Z,87.68
2018-11-05T02:33:43.886Z,87.73
2018-11-05T02:36:13.731Z,88.64
2018-11-05T02:38:43.592Z,87.17
2018-11-05T02:41:13.560Z,87.33
2018-11-05T02:43:43.451Z,87.36
2018-11-05T02:46:13.488Z,87.92
2018-11-05T02:48:43.324Z,88.35
2018-11-05T02:51:13.341Z,87.90
2018-11-05T02:53:43.283Z,88.58
2018-11-05T02:56:13.268Z,88.65
2018-11-05T02:58:43.173Z,88.96
2018-11-05T03:01:12.932Z,88.79
2018-11-05T03:03:43.312Z,88.03
2018-11-05T03:06:13.093Z,87.74
2018-11-05T03:08:42.908Z,88.47
2018-11-05T03:11:12.898Z,88.03
2018-11-05T03:13:42.949Z,86.47
2018-11-05T03:16:12.924Z,86.64
2018-11-05T03:18:42.776Z,86.64
2018-11-05T03:21:12.627Z,87.67
2018-11-05T03:23:42.391Z,88.31
2018-11-05T03:26:12.285Z,88.32
2018-11-05T03:28:42.096Z,88.27
2018-11-05T03:31:12.042Z,88.03
2018-11-05T03:33:42.014Z,88.23
2018-11-05T03:36:11.887Z,88.70
2018-11-05T03:38:41.862Z,88.60
2018-11-05T03:41:12.152Z,89.09
2018-11-05T03:43:41.936Z,88.23
2018-11-05T03:46:11.819Z,88.04
2018-11-05T03:48:41.925Z,88.87
2018-11-05T03:51:11.686Z,88.77
2018-11-05T03:53:41.592Z,88.44
2018-11-05T03:56:11.638Z,88.73
2018-11-05T03:58:41.289Z,88.24
2018-11-05T04:01:10.996Z,88.59
2018-11-05T04:03:40.891Z,88.80
2018-11-05T04:06:10.739Z,89.22
2018-11-05T04:08:40.460Z,88.43
2018-11-05T04:11:10.410Z,89.27
2018-11-05T04:13:40.297Z,88.83
2018-11-05T04:16:10.475Z,88.98
2018-11-05T04:18:40.297Z,87.36
2018-11-05T04:21:10.181Z,87.15
2018-11-05T04:23:40.289Z,87.80
2018-11-05T04:26:10.487Z,88.60
2018-11-05T04:28:40.442Z,87.95
2018-11-05T04:31:10.413Z,87.99
2018-11-05T04:33:40.289Z,87.82
2018-11-05T04:36:10.409Z,88.44
2018-11-05T04:38:40.622Z,88.31
2018-11-05T04:41:10.576Z,88.00
2018-11-05T04:43:40.430Z,87.59
2018-11-05T04:46:10.293Z,88.04
2018-11-05T04:48:40.185Z,88.29
2018-11-05T04:51:10.114Z,88.17
2018-11-05T04:53:40.373Z,87.42
2018-11-05T04:56:10.312Z,86.89
2018-11-05T04:58:40.145Z,87.19
2018-11-05T05:01:10.109Z,87.83
2018-11-05T05:03:40.077Z,87.74
2018-11-05T05:06:10.152Z,87.78
2018-11-05T05:08:40.008Z,87.38
2018-11-05T05:11:09.744Z,86.99
2018-11-05T05:13:39.696Z,88.02
2018-11-05T05:16:09.776Z,87.64
2018-11-05T05:18:39.589Z,87.34
2018-11-05T05:21:09.692Z,87.87
2018-11-05T05:23:39.472Z,87.76
2018-11-05T05:26:09.518Z,88.17
2018-11-05T05:28:39.415Z,87.85
2018-11-05T05:31:09.450Z,88.11
2018-11-05T05:33:39.550Z,88.21
2018-11-05T05:36:09.568Z,88.04
2018-11-05T05:38:39.538Z,88.21
2018-11-05T05:41:09.682Z,88.28
2018-11-05T05:43:39.623Z,88.32
2018-11-05T05:46:09.621Z,88.88
2018-11-05T05:48:39.688Z,88.65
2018-11-05T05:51:09.570Z,89.07
2018-11-05T05:53:39.719Z,88.90
2018-11-05T05:56:09.575Z,89.30
2018-11-05T05:58:39.607Z,88.45
2018-11-05T06:01:09.602Z,88.27
2018-11-05T06:03:39.506Z,88.17
2018-11-05T06:06:10.022Z,87.35
2018-11-05T06:08:39.897Z,87.59
2018-11-05T06:11:09.790Z,87.35
2018-11-05T06:13:39.759Z,87.03
2018-11-05T06:16:09.746Z,86.97
2018-11-05T06:18:39.661Z,87.55
2018-11-05T06:21:09.599Z,87.69
2018-11-05T06:23:39.720Z,87.62
2018-11-05T06:26:09.790Z,87.39
2018-11-05T06:28:39.724Z,87.26
2018-11-05T06:31:09.704Z,86.77
2018-11-05T06:33:39.552Z,86.81
2018-11-05T06:36:09.745Z,87.03
2018-11-05T06:38:39.606Z,87.18
2018-11-05T06:41:09.736Z,87.77
2018-11-05T06:43:39.609Z,87.57
2018-11-05T06:46:09.561Z,87.83
2018-11-05T06:48:39.738Z,87.99
2018-11-05T06:51:09.908Z,87.57
2018-11-05T06:53:40.008Z,87.42
2018-11-05T06:56:10.004Z,87.61
2018-11-05T06:58:39.830Z,87.44
2018-11-05T07:01:09.827Z,87.75
2018-11-05T07:03:39.751Z,87.15
2018-11-05T07:06:09.720Z,87.19
2018-11-05T07:08:39.991Z,87.01
2018-11-05T07:11:09.953Z,87.22
2018-11-05T07:13:39.902Z,87.03
2018-11-05T07:16:09.909Z,87.09
2018-11-05T07:18:40.187Z,87.54
2018-11-05T07:21:09.899Z,87.10
2018-11-05T07:23:39.803Z,87.28
2018-11-05T07:26:09.705Z,87.06
2018-11-05T07:28:39.682Z,86.09
2018-11-05T07:31:09.603Z,86.50
2018-11-05T07:33:39.807Z,86.06
2018-11-05T07:36:09.772Z,86.53
2018-11-05T07:38:39.741Z,86.40
2018-11-05T07:41:09.899Z,85.82
2018-11-05T07:43:39.827Z,85.66
2018-11-05T07:46:09.707Z,86.39
2018-11-05T07:48:39.759Z,85.44
2018-11-05T07:51:09.954Z,84.82
2018-11-05T07:53:39.773Z,84.82
2018-11-05T07:56:09.871Z,83.88
2018-11-05T07:58:39.719Z,84.09
2018-11-05T08:01:10.019Z,83.49
2018-11-05T08:03:40.041Z,83.66
2018-11-05T08:06:10.826Z,83.52
2018-11-05T08:08:40.796Z,83.37
2018-11-05T08:11:10.652Z,83.49
2018-11-05T08:13:40.649Z,83.07
2018-11-05T08:16:10.579Z,82.82
2018-11-05T08:18:40.588Z,83.46
2018-11-05T08:21:10.494Z,82.98
2018-11-05T08:23:40.771Z,83.55
2018-11-05T08:26:11.211Z,83.07
2018-11-05T08:28:41.099Z,82.80
2018-11-05T08:31:11.084Z,82.66
2018-11-05T08:33:41.070Z,83.03
2018-11-05T08:36:11.043Z,83.33
2018-11-05T08:38:40.917Z,82.73
2018-11-05T08:41:10.780Z,82.22
2018-11-05T08:43:41.075Z,81.47
2018-11-05T08:46:11.199Z,81.72
2018-11-05T08:48:41.076Z,81.90
2018-11-05T08:51:11.031Z,81.93
2018-11-05T08:53:40.897Z,81.95
2018-11-05T08:56:10.852Z,81.89
2018-11-05T08:58:40.634Z,82.31
2018-11-05T09:01:15.616Z,81.86
2018-11-05T09:03:46.549Z,81.88
2018-11-05T09:06:17.251Z,81.70
2018-11-05T09:08:47.548Z,81.69
2018-11-05T09:11:17.815Z,81.68
2018-11-05T09:13:47.325Z,81.55
2018-11-05T09:16:17.664Z,82.07
2018-11-05T09:18:48.500Z,82.01
2018-11-05T09:21:19.244Z,82.25
2018-11-05T09:23:49.266Z,81.20
2018-11-05T09:26:19.241Z,80.20
2018-11-05T09:28:49.226Z,81.18
2018-11-05T09:31:19.481Z,80.55
2018-11-05T09:33:49.518Z,80.65
2018-11-05T09:36:19.675Z,80.11
2018-11-05T09:38:49.726Z,80.04
2018-11-05T09:41:19.764Z,80.41
2018-11-05T09:43:50.219Z,79.63
2018-11-05T09:46:20.190Z,80.26
2018-11-05T09:48:49.967Z,80.75
2018-11-05T09:51:20.519Z,80.36
2018-11-05T09:53:50.830Z,80.28
2018-11-05T09:56:20.640Z,80.54
2018-11-05T09:58:50.900Z,80.29
2018-11-05T10:01:20.650Z,78.89
2018-11-05T10:03:54.618Z,79.85
2018-11-05T10:06:25.710Z,79.37
2018-11-05T10:08:55.525Z,79.02
2018-11-05T10:11:25.533Z,78.83
2018-11-05T10:13:55.358Z,78.71
2018-11-05T10:16:25.539Z,78.58
2018-11-05T10:18:55.380Z,78.71
2018-11-05T10:21:25.662Z,78.04
2018-11-05T10:23:55.725Z,78.28
2018-11-05T10:26:26.132Z,78.30
2018-11-05T10:28:56.132Z,77.99
2018-11-05T10:31:27.224Z,78.57
2018-11-05T10:33:57.315Z,78.27
2018-11-05T10:36:27.412Z,78.84
2018-11-05T10:38:57.345Z,79.23
2018-11-05T10:43:48.986Z,78.63
2018-11-05T10:46:19.031Z,78.59
2018-11-05T10:48:48.831Z,78.83
2018-11-05T10:51:18.888Z,79.63
2018-11-05T10:53:48.728Z,79.72
2018-11-05T10:56:18.577Z,78.83
2018-11-05T10:58:48.512Z,78.95
2018-11-05T11:01:22.826Z,78.24
2018-11-05T11:03:57.988Z,77.91
2018-11-05T11:06:27.872Z,78.25
2018-11-05T11:08:57.816Z,78.07
2018-11-05T11:11:28.258Z,78.24
2018-11-05T11:13:58.151Z,78.02
2018-11-05T11:16:28.184Z,78.33
2018-11-05T11:18:58.175Z,77.53
2018-11-05T11:21:28.115Z,77.97
2018-11-05T11:23:58.033Z,77.96
2018-11-05T11:26:27.925Z,77.58
2018-11-05T11:28:57.947Z,77.62
2018-11-05T11:31:27.772Z,77.11
2018-11-05T11:33:57.700Z,77.99
2018-11-05T11:36:27.939Z,77.77
2018-11-05T11:38:57.682Z,76.91
2018-11-05T11:41:27.759Z,78.68
2018-11-05T11:43:57.610Z,79.03
2018-11-05T11:46:27.404Z,78.98
2018-11-05T11:48:57.233Z,77.70
2018-11-05T11:51:27.446Z,76.89
2018-11-05T11:53:57.280Z,76.67
2018-11-05T11:56:27.154Z,76.94
2018-11-05T11:58:57.109Z,77.13
2018-11-05T12:01:27.188Z,76.90
2018-11-05T12:03:57.273Z,76.76
2018-11-05T12:06:27.273Z,76.59
2018-11-05T12:08:57.068Z,76.59
2018-11-05T12:11:27.205Z,75.85
2018-11-05T12:13:57.490Z,76.46
2018-11-05T12:16:28.000Z,76.68
2018-11-05T12:18:57.974Z,76.41
2018-11-05T12:21:27.806Z,76.49
2018-11-05T12:23:58.165Z,76.49
2018-11-05T12:26:28.433Z,76.69
2018-11-05T12:28:58.319Z,76.66
2018-11-05T12:31:28.365Z,76.37
2018-11-05T12:33:58.372Z,76.72
2018-11-05T12:36:28.375Z,77.13
2018-11-05T12:38:58.536Z,76.14
2018-11-05T12:41:28.479Z,76.49
2018-11-05T12:43:58.573Z,76.70
2018-11-05T12:46:28.657Z,76.73
2018-11-05T12:48:58.533Z,76.46
2018-11-05T12:51:28.658Z,76.38
2018-11-05T12:53:58.524Z,76.55
2018-11-05T12:56:28.646Z,77.44
2018-11-05T12:59:00.077Z,76.79
2018-11-05T13:01:30.757Z,76.86
2018-11-05T13:04:00.684Z,77.12
2018-11-05T13:06:30.851Z,77.04
2018-11-05T13:09:01.008Z,77.20
2018-11-05T13:11:30.943Z,76.65
2018-11-05T13:14:00.780Z,77.18
2018-11-05T13:16:30.757Z,77.02
2018-11-05T13:19:00.890Z,77.58
2018-11-05T13:21:30.851Z,77.07
2018-11-05T13:24:00.759Z,76.23
2018-11-05T13:26:30.590Z,75.88
2018-11-05T13:29:00.753Z,76.02
2018-11-05T13:31:30.869Z,76.63
2018-11-05T13:34:00.811Z,75.92
2018-11-05T13:36:31.108Z,75.61
2018-11-05T13:39:01.031Z,75.71
2018-11-05T13:41:31.066Z,76.24
2018-11-05T13:44:00.947Z,75.74
2018-11-05T13:46:31.046Z,76.27
2018-11-05T13:49:01.401Z,75.83
2018-11-05T13:51:31.223Z,76.71
2018-11-05T13:54:01.170Z,76.70
2018-11-05T13:56:31.804Z,76.09
2018-11-05T13:59:01.824Z,76.17
2018-11-05T14:01:31.655Z,76.11
2018-11-05T14:04:01.843Z,76.15
2018-11-05T14:06:31.937Z,76.41
2018-11-05T14:09:02.001Z,75.94
2018-11-05T14:11:31.729Z,75.86
2018-11-05T14:14:01.594Z,75.92
2018-11-05T14:16:31.875Z,76.48
2018-11-05T14:19:01.941Z,76.60
2018-11-05T14:21:32.413Z,75.81
2018-11-05T14:24:02.250Z,75.43
2018-11-05T14:26:32.276Z,76.20
2018-11-05T14:29:02.600Z,76.16
2018-11-05T14:31:32.614Z,75.54
2018-11-05T14:34:02.598Z,74.98
2018-11-05T14:36:32.661Z,75.04
2018-11-05T14:39:02.830Z,76.57
2018-11-05T14:41:32.748Z,76.43
2018-11-05T14:44:02.635Z,76.29
2018-11-05T14:46:32.492Z,75.57
2018-11-05T14:49:02.930Z,75.40
2018-11-05T14:51:33.131Z,74.79
2018-11-05T14:54:03.338Z,75.58
2018-11-05T14:56:34.179Z,75.86
2018-11-05T14:59:04.518Z,75.97
2018-11-05T15:01:34.877Z,76.49
2018-11-05T15:04:05.214Z,76.58
2018-11-05T15:06:35.229Z,76.82
2018-11-05T15:09:07.956Z,76.94
2018-11-05T15:11:38.045Z,77.14
2018-11-05T15:14:08.240Z,76.84
2018-11-05T15:16:38.206Z,77.04
2018-11-05T15:19:08.414Z,78.10
2018-11-05T15:21:38.102Z,78.58
2018-11-05T15:24:08.552Z,78.44
2018-11-05T15:26:38.758Z,79.40
2018-11-05T15:29:09.604Z,79.31
2018-11-05T15:31:39.430Z,79.53
2018-11-05T15:34:09.426Z,80.34
2018-11-05T15:36:39.273Z,80.88
2018-11-05T15:39:09.756Z,81.07
2018-11-05T15:41:39.945Z,81.50
2018-11-05T15:44:10.032Z,80.97
2018-11-05T15:46:39.842Z,81.10
2018-11-05T15:49:09.735Z,82.16
2018-11-05T15:51:40.622Z,82.51
2018-11-05T15:54:10.943Z,82.68
2018-11-05T15:56:40.769Z,81.80
2018-11-05T15:59:11.013Z,83.03
2018-11-05T16:01:41.334Z,82.74
2018-11-05T16:04:11.490Z,83.14
2018-11-05T16:06:41.388Z,82.95
2018-11-05T16:09:11.779Z,82.90
2018-11-05T16:11:43.123Z,82.55
2018-11-05T16:14:13.216Z,82.90
2018-11-05T16:16:43.068Z,82.76
2018-11-05T16:19:13.147Z,82.67
2018-11-05T16:21:43.466Z,83.20
2018-11-05T16:24:13.422Z,82.24
2018-11-05T16:26:43.242Z,82.44
2018-11-05T16:29:13.280Z,83.13
2018-11-05T16:31:43.448Z,82.25
2018-11-05T16:34:13.525Z,82.21
2018-11-05T16:36:43.528Z,81.78
2018-11-05T16:39:14.397Z,81.74
2018-11-05T16:41:44.645Z,81.71
2018-11-05T16:44:14.766Z,82.22
2018-11-05T16:46:44.589Z,81.78
2018-11-05T16:49:14.649Z,82.19
2018-11-05T16:51:44.784Z,81.63
2018-11-05T16:54:14.680Z,82.05
2018-11-05T16:56:45.046Z,82.37
2018-11-05T16:59:15.321Z,82.55
2018-11-05T17:01:46.035Z,82.26
2018-11-05T17:04:15.741Z,82.35
2018-11-05T17:06:45.808Z,82.91
2018-11-05T17:09:15.876Z,82.64
2018-11-05T17:11:45.790Z,82.95
2018-11-05T17:14:16.849Z,82.67
2018-11-05T17:16:46.690Z,83.25
2018-11-05T17:19:16.838Z,83.36
2018-11-05T17:21:46.822Z,83.83
2018-11-05T17:24:16.640Z,83.26
2018-11-05T17:26:46.632Z,83.44
2018-11-05T17:29:16.588Z,84.09
2018-11-05T17:31:46.483Z,83.83
2018-11-05T17:34:16.508Z,84.17
2018-11-05T17:36:46.527Z,83.82
2018-11-05T17:39:16.526Z,84.37
2018-11-05T17:41:46.576Z,84.54
2018-11-05T17:44:16.661Z,84.64
2018-11-05T17:46:46.510Z,84.23
2018-11-05T17:49:16.549Z,85.09
2018-11-05T17:51:46.346Z,84.81
2018-11-05T17:54:16.159Z,84.36
2018-11-05T17:56:46.138Z,84.34
2018-11-05T17:59:15.961Z,84.47
2018-11-05T18:01:45.887Z,85.28
2018-11-05T18:04:15.815Z,84.91
2018-11-05T18:06:45.862Z,85.06
2018-11-05T18:09:16.059Z,85.00
2018-11-05T18:11:45.996Z,84.95
2018-11-05T18:14:15.949Z,84.82
2018-11-05T18:16:46.011Z,85.39
2018-11-05T18:19:16.108Z,85.26
2018-11-05T18:21:46.256Z,85.65
2018-11-05T18:24:16.348Z,85.04
2018-11-05T18:26:46.136Z,84.73
2018-11-05T18:29:16.341Z,85.07
2018-11-05T18:31:46.636Z,85.98
2018-11-05T18:34:16.701Z,86.14
2018-11-05T18:36:46.663Z,86.10
2018-11-05T18:39:16.513Z,86.17
2018-11-05T18:41:46.450Z,86.50
2018-11-05T18:44:16.400Z,86.66
2018-11-05T18:46:46.836Z,86.88
2018-11-05T18:49:16.970Z,86.26
2018-11-05T18:51:46.928Z,86.80
2018-11-05T18:54:17.121Z,85.95
2018-11-05T18:56:47.272Z,86.51
2018-11-05T18:59:17.433Z,86.89
2018-11-05T19:01:47.390Z,86.17
2018-11-05T19:04:17.737Z,86.67
2018-11-05T19:06:48.472Z,86.47
2018-11-05T19:09:19.577Z,86.60
2018-11-05T19:11:50.088Z,86.90
2018-11-05T19:14:20.667Z,86.68
2018-11-05T19:16:50.804Z,86.61
2018-11-05T19:19:20.743Z,87.02
2018-11-05T19:21:51.150Z,87.32
2018-11-05T19:24:21.524Z,87.26
2018-11-05T19:26:51.716Z,86.83
2018-11-05T19:29:21.689Z,87.14
2018-11-05T19:31:51.530Z,87.23
2018-11-05T19:34:21.645Z,87.36
2018-11-05T19:36:52.308Z,87.14
2018-11-05T19:39:22.688Z,87.35
2018-11-05T19:41:52.910Z,87.18
2018-11-05T19:44:23.163Z,87.54
2018-11-05T19:46:53.129Z,87.53
2018-11-05T19:49:22.966Z,87.18
2018-11-05T19:51:53.205Z,87.22
2018-11-05T19:54:23.146Z,86.96
2018-11-05T19:56:53.083Z,87.57
2018-11-05T19:59:23.107Z,86.85
2018-11-05T20:01:53.020Z,87.65
2018-11-05T20:04:23.244Z,86.90
2018-11-05T20:06:53.366Z,87.04
2018-11-05T20:09:23.596Z,87.03
2018-11-05T20:11:53.706Z,87.31
2018-11-05T20:14:23.937Z,87.55
2018-11-05T20:16:54.341Z,86.84
2018-11-05T20:19:24.665Z,86.75
2018-11-05T20:21:54.871Z,87.29
2018-11-05T20:24:25.041Z,87.08
2018-11-05T20:26:55.080Z,87.12
2018-11-05T20:29:24.885Z,87.62
2018-11-05T20:31:56.016Z,87.02
2018-11-05T20:34:26.114Z,87.37
2018-11-05T20:36:56.016Z,87.15
2018-11-05T20:39:25.924Z,87.06
2018-11-05T20:41:55.796Z,87.94
2018-11-05T20:44:25.951Z,87.94
2018-11-05T20:46:56.405Z,88.04
2018-11-05T20:49:26.533Z,87.96
2018-11-05T20:51:56.602Z,88.28
2018-11-05T20:54:26.599Z,88.16
2018-11-05T20:56:56.822Z,87.46
2018-11-05T20:59:26.914Z,88.21
2018-11-05T21:01:57.006Z,88.16
2018-11-05T21:04:27.210Z,87.73
2018-11-05T21:06:57.386Z,88.17
2018-11-05T21:09:27.342Z,87.44
2018-11-05T21:11:57.423Z,87.96
2018-11-05T21:14:27.438Z,88.12
2018-11-05T21:16:57.597Z,88.24
2018-11-05T21:19:27.684Z,87.32
2018-11-05T21:21:58.000Z,87.95
2018-11-05T21:24:28.407Z,87.83
2018-11-05T21:26:58.387Z,87.42
2018-11-05T21:29:28.703Z,87.45
2018-11-05T21:31:58.598Z,87.66
2018-11-05T21:34:28.514Z,87.63
2018-11-05T21:36:58.629Z,87.92
2018-11-05T21:39:28.554Z,87.22
2018-11-05T21:41:58.748Z,86.99
2018-11-05T21:44:28.837Z,87.49
2018-11-05T21:46:58.748Z,87.53
2018-11-05T21:49:28.622Z,87.05
2018-11-05T21:51:58.802Z,87.02
2018-11-05T21:54:28.738Z,87.51
2018-11-05T21:56:58.922Z,87.53
2018-11-05T21:59:29.001Z,86.96
2018-11-05T22:01:59.052Z,86.94
2018-11-05T22:04:29.054Z,87.07
2018-11-05T22:06:59.173Z,86.36
2018-11-05T22:09:29.288Z,86.33
2018-11-05T22:11:59.377Z,86.45
2018-11-05T22:14:29.660Z,86.24
2018-11-05T22:16:59.670Z,86.20
2018-11-05T22:19:29.858Z,86.11
2018-11-05T22:22:00.132Z,86.31
2018-11-05T22:24:29.997Z,86.32
2018-11-05T22:27:00.130Z,85.67
2018-11-05T22:29:30.055Z,85.90
2018-11-05T22:32:00.142Z,86.29
2018-11-05T22:34:30.138Z,85.37
2018-11-05T22:37:00.143Z,85.80
2018-11-05T22:39:30.230Z,85.22
2018-11-05T22:42:00.222Z,85.94
2018-11-05T22:44:30.241Z,85.73
2018-11-05T22:47:00.126Z,85.91
2018-11-05T22:49:30.005Z,85.69
2018-11-05T22:52:00.115Z,85.49
2018-11-05T22:54:30.228Z,85.70
2018-11-05T22:57:00.222Z,85.79
2018-11-05T22:59:30.183Z,85.51
2018-11-05T23:02:00.089Z,85.00
2018-11-05T23:04:30.030Z,85.29
2018-11-05T23:06:59.877Z,85.55
2018-11-05T23:09:29.929Z,85.65
2018-11-05T23:11:59.818Z,85.61
2018-11-05T23:14:29.823Z,85.44
2018-11-05T23:16:59.715Z,85.85
2018-11-05T23:19:29.920Z,85.45
2018-11-05T23:21:59.967Z,86.07
2018-11-05T23:24:30.073Z,85.68
2018-11-05T23:26:59.830Z,85.99
2018-11-05T23:29:29.792Z,86.24
2018-11-05T23:31:59.973Z,86.35
2018-11-05T23:34:29.988Z,85.94
2018-11-05T23:37:00.184Z,86.10
2018-11-05T23:39:30.274Z,86.56
2018-11-05T23:42:04.096Z,86.49
2018-11-05T23:44:34.591Z,86.09
2018-11-05T23:47:04.588Z,86.06
2018-11-05T23:49:34.510Z,86.24
2018-11-05T23:52:04.566Z,87.02
2018-11-05T23:54:34.789Z,86.34
2018-11-05T23:57:04.727Z,87.14
2018-11-05T23:59:34.546Z,86.89
